createdAt,value
2022-10-27T00:01:37.247Z,61.33
2022-10-27T00:04:06.073Z,61.23
2022-10-27T00:06:35.480Z,61.34
2022-10-27T00:09:04.359Z,61.53
2022-10-27T00:11:32.902Z,61.26
2022-10-27T00:14:02.714Z,61.31
2022-10-27T00:16:31.568Z,61.11
2022-10-27T00:19:00.038Z,61.22
2022-10-27T00:21:28.527Z,61.25
2022-10-27T00:23:57.026Z,61.10
2022-10-27T00:26:25.578Z,61.16
2022-10-27T00:28:56.825Z,61.19
2022-10-27T00:31:26.637Z,61.15
2022-10-27T00:33:55.440Z,61.20
2022-10-27T00:36:25.124Z,60.95
2022-10-27T00:38:54.826Z,61.05
2022-10-27T00:41:28.974Z,61.37
2022-10-27T00:43:58.423Z,61.27
2022-10-27T00:46:32.979Z,61.32
2022-10-27T00:49:05.088Z,60.97
2022-10-27T00:51:33.671Z,61.12
2022-10-27T00:54:02.715Z,61.09
2022-10-27T00:56:31.229Z,60.73
2022-10-27T00:58:59.780Z,61.08
2022-10-27T01:01:29.964Z,61.16
2022-10-27T01:03:58.723Z,60.73
2022-10-27T01:06:27.809Z,61.26
2022-10-27T01:08:56.504Z,61.09
2022-10-27T01:11:24.975Z,61.13
2022-10-27T01:13:53.563Z,61.16
2022-10-27T01:16:28.287Z,61.14
2022-10-27T01:19:04.908Z,61.25
2022-10-27T01:21:55.656Z,61.22
2022-10-27T01:24:45.677Z,60.97
2022-10-27T01:27:29.053Z,61.12
2022-10-27T01:30:06.099Z,60.80
2022-10-27T01:32:42.042Z,60.86
2022-10-27T01:35:17.201Z,60.74
2022-10-27T01:37:49.441Z,61.07
2022-10-27T01:40:23.856Z,61.04
2022-10-27T01:42:55.713Z,60.75
2022-10-27T01:45:27.315Z,60.91
2022-10-27T01:47:57.805Z,60.62
2022-10-27T01:50:40.019Z,60.95
2022-10-27T01:53:18.569Z,60.88
2022-10-27T01:55:55.770Z,60.79
2022-10-27T01:58:36.609Z,60.84
2022-10-27T02:01:16.664Z,61.05
2022-10-27T02:03:52.189Z,60.78
2022-10-27T02:06:23.653Z,60.95
2022-10-27T02:08:54.796Z,60.99
2022-10-27T02:11:23.510Z,60.45
2022-10-27T02:13:52.163Z,60.72
2022-10-27T02:16:23.091Z,60.88
2022-10-27T02:18:55.350Z,60.95
2022-10-27T02:21:24.340Z,60.81
2022-10-27T02:23:53.351Z,60.79
2022-10-27T02:26:25.311Z,60.49
2022-10-27T02:28:57.489Z,60.58
2022-10-27T02:31:29.229Z,60.76
2022-10-27T02:33:59.191Z,60.75
2022-10-27T02:36:28.429Z,60.58
2022-10-27T02:38:56.924Z,60.56
2022-10-27T02:41:25.523Z,60.59
2022-10-27T02:43:54.035Z,60.71
2022-10-27T02:46:23.224Z,60.58
2022-10-27T02:48:51.755Z,60.73
2022-10-27T02:51:21.511Z,60.74
2022-10-27T02:53:49.918Z,60.73
2022-10-27T02:56:18.352Z,60.71
2022-10-27T02:58:46.758Z,60.40
2022-10-27T03:01:15.442Z,60.58
2022-10-27T03:03:44.067Z,60.33
2022-10-27T03:06:12.487Z,60.46
2022-10-27T03:08:42.315Z,60.68
2022-10-27T03:11:10.772Z,60.58
2022-10-27T03:13:39.187Z,60.33
2022-10-27T03:16:08.273Z,60.28
2022-10-27T03:18:36.738Z,60.33
2022-10-27T03:21:05.183Z,60.52
2022-10-27T03:23:33.696Z,60.66
2022-10-27T03:26:03.501Z,60.42
2022-10-27T03:28:35.352Z,60.45
2022-10-27T03:31:04.156Z,60.27
2022-10-27T03:33:33.017Z,60.35
2022-10-27T03:36:01.530Z,60.32
2022-10-27T03:38:30.026Z,60.76
2022-10-27T03:40:58.542Z,60.45
2022-10-27T03:43:28.335Z,60.13
2022-10-27T03:46:00.063Z,60.69
2022-10-27T03:48:29.508Z,60.12
2022-10-27T03:50:57.972Z,60.43
2022-10-27T03:53:26.477Z,60.30
2022-10-27T03:55:54.951Z,60.40
2022-10-27T03:58:23.446Z,60.53
2022-10-27T04:00:53.355Z,60.59
2022-10-27T04:03:21.856Z,60.29
2022-10-27T04:05:51.546Z,60.39
2022-10-27T04:08:20.020Z,60.05
2022-10-27T04:10:48.467Z,60.44
2022-10-27T04:13:17.060Z,60.40
2022-10-27T04:15:45.526Z,60.19
2022-10-27T04:18:15.348Z,60.36
2022-10-27T04:20:43.820Z,60.20
2022-10-27T04:23:12.319Z,60.61
2022-10-27T04:25:40.839Z,60.51
2022-10-27T04:28:09.812Z,60.55
2022-10-27T04:30:38.396Z,60.14
2022-10-27T04:33:06.889Z,60.07
2022-10-27T04:35:36.749Z,60.27
2022-10-27T04:38:05.290Z,60.56
2022-10-27T04:40:33.740Z,60.10
2022-10-27T04:43:02.228Z,60.33
2022-10-27T04:45:30.684Z,60.40
2022-10-27T04:47:59.150Z,60.21
2022-10-27T04:50:28.056Z,60.63
2022-10-27T04:52:59.854Z,60.34
2022-10-27T04:55:29.295Z,60.10
2022-10-27T04:57:58.024Z,60.11
2022-10-27T05:00:26.779Z,60.09
2022-10-27T05:02:56.260Z,60.22
2022-10-27T05:05:26.132Z,59.97
2022-10-27T05:07:55.077Z,60.50
2022-10-27T05:10:25.771Z,60.24
2022-10-27T05:12:54.980Z,60.21
2022-10-27T05:15:23.609Z,60.21
2022-10-27T05:17:52.387Z,60.48
2022-10-27T05:20:22.518Z,60.11
2022-10-27T05:22:51.231Z,60.06
2022-10-27T05:25:19.724Z,60.25
2022-10-27T05:27:49.679Z,60.16
2022-10-27T05:30:18.911Z,60.08
2022-10-27T05:32:47.718Z,60.26
2022-10-27T05:35:16.348Z,60.17
2022-10-27T05:37:46.637Z,60.10
2022-10-27T05:40:15.618Z,60.42
2022-10-27T05:42:52.717Z,60.38
2022-10-27T05:45:23.066Z,60.56
2022-10-27T05:47:58.117Z,60.42
2022-10-27T05:50:27.248Z,60.13
2022-10-27T05:52:55.757Z,60.28
2022-10-27T05:55:24.758Z,60.06
2022-10-27T05:57:55.790Z,60.07
2022-10-27T06:00:24.996Z,60.12
2022-10-27T06:02:56.480Z,60.17
2022-10-27T06:05:25.244Z,60.01
2022-10-27T06:07:54.390Z,60.22
2022-10-27T06:10:23.221Z,60.04
2022-10-27T06:12:51.883Z,59.96
2022-10-27T06:15:21.731Z,60.40
2022-10-27T06:17:53.602Z,60.27
2022-10-27T06:20:22.437Z,60.25
2022-10-27T06:22:51.010Z,60.16
2022-10-27T06:25:19.621Z,60.34
2022-10-27T06:27:48.073Z,60.29
2022-10-27T06:30:16.683Z,60.25
2022-10-27T06:32:46.477Z,60.13
2022-10-27T06:35:14.968Z,60.22
2022-10-27T06:37:46.752Z,60.24
2022-10-27T06:40:16.580Z,60.37
2022-10-27T06:43:05.692Z,60.16
2022-10-27T06:45:34.910Z,59.98
2022-10-27T06:48:05.476Z,60.25
2022-10-27T06:50:34.603Z,59.89
2022-10-27T06:53:03.385Z,60.06
2022-10-27T06:55:32.618Z,60.00
2022-10-27T06:58:01.212Z,60.07
2022-10-27T07:00:29.816Z,59.91
2022-10-27T07:02:58.386Z,59.90
2022-10-27T07:05:28.530Z,59.97
2022-10-27T07:07:57.372Z,59.98
2022-10-27T07:10:25.888Z,59.95
2022-10-27T07:12:55.587Z,59.89
2022-10-27T07:15:25.159Z,59.96
2022-10-27T07:17:59.085Z,59.82
2022-10-27T07:20:30.717Z,59.96
2022-10-27T07:22:59.760Z,59.95
2022-10-27T07:25:29.134Z,59.87
2022-10-27T07:27:58.286Z,59.89
2022-10-27T07:30:28.380Z,60.00
2022-10-27T07:32:57.174Z,59.84
2022-10-27T07:35:26.506Z,59.65
2022-10-27T07:37:56.614Z,59.91
2022-10-27T07:40:28.788Z,59.77
2022-10-27T07:43:05.031Z,59.99
2022-10-27T07:45:37.870Z,59.78
2022-10-27T07:48:08.150Z,60.04
2022-10-27T07:50:36.612Z,59.90
2022-10-27T07:53:06.727Z,59.72
2022-10-27T07:55:36.774Z,59.79
2022-10-27T07:58:07.684Z,59.99
2022-10-27T08:00:37.692Z,59.94
2022-10-27T08:03:07.826Z,59.85
2022-10-27T08:05:37.952Z,59.73
2022-10-27T08:08:09.136Z,59.99
2022-10-27T08:10:39.331Z,60.11
2022-10-27T08:13:08.292Z,59.94
2022-10-27T08:15:40.127Z,59.63
2022-10-27T08:18:11.174Z,59.84
2022-10-27T08:20:41.964Z,59.47
2022-10-27T08:23:14.203Z,59.67
2022-10-27T08:25:44.013Z,59.66
2022-10-27T08:28:14.508Z,59.77
2022-10-27T08:30:50.763Z,59.73
2022-10-27T08:33:21.137Z,59.73
2022-10-27T08:35:50.652Z,59.44
2022-10-27T08:38:20.727Z,59.58
2022-10-27T08:41:13.426Z,59.66
2022-10-27T08:44:17.624Z,59.32
2022-10-27T08:46:48.782Z,59.82
2022-10-27T08:49:28.267Z,59.85
2022-10-27T08:51:59.604Z,59.71
2022-10-27T08:54:29.860Z,59.50
2022-10-27T08:56:59.795Z,59.22
2022-10-27T08:59:31.763Z,59.51
2022-10-27T09:02:07.047Z,59.48
2022-10-27T09:04:54.346Z,59.32
2022-10-27T09:07:28.542Z,59.13
2022-10-27T09:09:59.872Z,59.47
2022-10-27T09:12:57.092Z,59.47
2022-10-27T09:15:34.270Z,59.13
2022-10-27T09:18:06.320Z,59.14
2022-10-27T09:20:38.986Z,59.49
2022-10-27T09:23:13.127Z,59.33
2022-10-27T09:25:43.964Z,59.57
2022-10-27T09:28:18.096Z,59.52
2022-10-27T09:30:49.124Z,59.07
2022-10-27T09:33:21.261Z,58.76
2022-10-27T09:35:51.675Z,58.88
2022-10-27T09:38:24.088Z,58.85
2022-10-27T09:40:55.413Z,59.09
2022-10-27T09:43:24.799Z,59.28
2022-10-27T09:45:56.574Z,59.25
2022-10-27T09:48:27.167Z,59.08
2022-10-27T09:50:58.945Z,59.21
2022-10-27T09:53:39.080Z,58.54
2022-10-27T09:56:10.844Z,59.02
2022-10-27T09:58:47.173Z,59.16
2022-10-27T10:01:15.684Z,59.04
2022-10-27T10:03:55.330Z,58.73
2022-10-27T10:06:30.867Z,58.70
2022-10-27T10:09:23.188Z,58.44
2022-10-27T10:11:53.145Z,58.49
2022-10-27T10:14:23.893Z,58.38
2022-10-27T10:16:54.104Z,58.36
2022-10-27T10:19:24.330Z,58.48
2022-10-27T10:21:54.504Z,58.17
2022-10-27T10:24:25.107Z,58.31
2022-10-27T10:26:56.138Z,58.31
2022-10-27T10:29:28.674Z,58.15
2022-10-27T10:32:11.723Z,57.97
2022-10-27T10:34:43.037Z,58.21
2022-10-27T10:37:33.276Z,58.19
2022-10-27T10:40:20.344Z,58.27
2022-10-27T10:43:04.801Z,58.32
2022-10-27T10:45:35.726Z,58.13
2022-10-27T10:48:08.987Z,57.93
2022-10-27T10:50:46.475Z,57.98
2022-10-27T10:53:30.734Z,58.10
2022-10-27T10:56:03.211Z,58.04
2022-10-27T10:58:35.061Z,58.38
2022-10-27T11:01:05.382Z,58.07
2022-10-27T11:03:36.441Z,58.27
2022-10-27T11:06:06.853Z,58.13
2022-10-27T11:08:42.335Z,58.21
2022-10-27T11:11:16.093Z,58.43
2022-10-27T11:13:49.045Z,58.44
2022-10-27T11:16:17.549Z,58.57
2022-10-27T11:18:51.811Z,58.52
2022-10-27T11:21:29.735Z,58.73
2022-10-27T11:23:59.434Z,58.84
2022-10-27T11:26:32.153Z,59.06
2022-10-27T11:29:08.457Z,59.04
2022-10-27T11:31:42.004Z,59.00
2022-10-27T11:34:17.763Z,58.78
2022-10-27T11:36:49.375Z,59.06
2022-10-27T11:39:24.314Z,58.88
2022-10-27T11:41:59.437Z,59.06
2022-10-27T11:44:33.924Z,58.85
2022-10-27T11:47:06.769Z,59.12
2022-10-27T11:49:38.421Z,59.29
2022-10-27T11:52:10.740Z,59.51
2022-10-27T11:54:39.948Z,59.45
2022-10-27T11:57:34.754Z,58.95
2022-10-27T12:00:16.717Z,59.30
2022-10-27T12:03:26.596Z,58.93
2022-10-27T12:05:59.259Z,58.70
2022-10-27T12:08:37.748Z,58.88
2022-10-27T12:11:17.179Z,59.04
2022-10-27T12:13:51.406Z,58.48
2022-10-27T12:16:25.983Z,59.43
2022-10-27T12:18:59.448Z,59.61
2022-10-27T12:21:30.493Z,59.92
2022-10-27T12:24:03.293Z,59.69
2022-10-27T12:26:34.807Z,59.89
2022-10-27T12:29:04.778Z,60.30
2022-10-27T12:31:38.770Z,59.29
2022-10-27T12:34:09.872Z,59.71
2022-10-27T12:36:45.548Z,59.43
2022-10-27T12:39:20.978Z,60.09
2022-10-27T12:41:54.134Z,59.31
2022-10-27T12:44:32.142Z,59.31
2022-10-27T12:47:13.108Z,59.49
2022-10-27T12:49:46.728Z,59.23
2022-10-27T12:52:17.163Z,58.97
2022-10-27T12:54:55.650Z,59.07
2022-10-27T12:57:33.106Z,59.02
2022-10-27T13:00:06.636Z,58.76
2022-10-27T13:02:40.961Z,59.04
2022-10-27T13:05:30.338Z,59.00
2022-10-27T13:08:13.723Z,59.38
2022-10-27T13:11:03.944Z,58.93
2022-10-27T13:13:44.656Z,59.08
2022-10-27T13:16:18.110Z,59.14
2022-10-27T13:18:57.712Z,59.25
2022-10-27T13:21:29.356Z,59.33
2022-10-27T13:24:02.928Z,58.91
2022-10-27T13:26:34.743Z,59.14
2022-10-27T13:29:07.259Z,59.14
2022-10-27T13:31:35.694Z,59.01
2022-10-27T13:34:19.623Z,59.27
2022-10-27T13:36:48.386Z,58.85
2022-10-27T13:39:45.998Z,59.16
2022-10-27T13:42:17.992Z,58.84
2022-10-27T13:44:48.677Z,58.86
2022-10-27T13:47:19.206Z,58.77
2022-10-27T13:49:59.245Z,59.26
2022-10-27T13:52:29.790Z,58.99
2022-10-27T13:55:34.903Z,59.14
2022-10-27T13:58:25.703Z,59.13
2022-10-27T14:01:03.065Z,59.09
2022-10-27T14:03:43.699Z,59.14
2022-10-27T14:06:28.944Z,59.08
2022-10-27T14:08:57.747Z,58.98
2022-10-27T14:11:28.370Z,59.01
2022-10-27T14:13:58.365Z,59.01
2022-10-27T14:16:29.912Z,59.14
2022-10-27T14:19:04.374Z,59.14
2022-10-27T14:21:36.443Z,59.12
2022-10-27T14:24:06.285Z,59.11
2022-10-27T14:26:36.367Z,59.01
2022-10-27T14:29:05.539Z,58.82
2022-10-27T14:31:35.748Z,59.12
2022-10-27T14:34:18.572Z,59.09
2022-10-27T14:36:49.369Z,59.17
2022-10-27T14:39:25.438Z,59.14
2022-10-27T14:41:55.296Z,59.22
2022-10-27T14:44:26.934Z,59.22
2022-10-27T14:46:58.410Z,59.23
2022-10-27T14:49:32.349Z,59.33
2022-10-27T14:52:09.344Z,59.23
2022-10-27T14:54:38.657Z,59.20
2022-10-27T14:57:28.106Z,59.40
2022-10-27T14:59:57.000Z,59.31
2022-10-27T15:02:26.579Z,59.29
2022-10-27T15:04:55.474Z,59.14
2022-10-27T15:07:25.361Z,59.30
2022-10-27T15:09:53.830Z,59.53
2022-10-27T15:12:25.338Z,59.15
2022-10-27T15:14:55.386Z,59.24
2022-10-27T15:17:29.053Z,59.49
2022-10-27T15:19:58.951Z,59.33
2022-10-27T15:22:29.006Z,59.23
2022-10-27T15:24:59.119Z,59.29
2022-10-27T15:27:33.228Z,59.30
2022-10-27T15:30:02.903Z,59.10
2022-10-27T15:32:38.780Z,59.15
2022-10-27T15:35:32.015Z,59.22
2022-10-27T15:38:03.239Z,59.42
2022-10-27T15:40:43.779Z,59.37
2022-10-27T15:43:24.496Z,59.31
2022-10-27T15:45:54.022Z,59.36
2022-10-27T15:48:34.152Z,59.47
2022-10-27T15:51:04.667Z,59.57
2022-10-27T15:53:36.520Z,59.43
2022-10-27T15:56:06.965Z,59.50
2022-10-27T15:58:37.058Z,59.45
2022-10-27T16:01:11.405Z,59.46
2022-10-27T16:03:43.461Z,59.36
2022-10-27T16:06:27.119Z,59.63
2022-10-27T16:08:58.270Z,59.50
2022-10-27T16:11:28.687Z,59.59
2022-10-27T16:13:59.152Z,59.47
2022-10-27T16:16:27.851Z,59.79
2022-10-27T16:18:56.439Z,59.90
2022-10-27T16:21:27.699Z,59.87
2022-10-27T16:23:58.167Z,59.81
2022-10-27T16:26:29.419Z,59.93
2022-10-27T16:29:01.069Z,59.95
2022-10-27T16:31:30.287Z,59.99
2022-10-27T16:33:59.488Z,59.71
2022-10-27T16:36:28.097Z,59.88
2022-10-27T16:38:58.454Z,59.92
2022-10-27T16:41:28.967Z,60.16
2022-10-27T16:43:57.421Z,60.36
2022-10-27T16:46:25.876Z,60.18
2022-10-27T16:48:54.469Z,60.23
2022-10-27T16:51:23.248Z,60.13
2022-10-27T16:53:51.944Z,60.19
2022-10-27T16:56:21.934Z,60.00
2022-10-27T16:58:50.338Z,60.21
2022-10-27T17:01:21.023Z,60.29
2022-10-27T17:03:49.665Z,60.57
2022-10-27T17:06:21.697Z,60.44
2022-10-27T17:08:50.298Z,60.61
2022-10-27T17:11:19.097Z,60.62
2022-10-27T17:13:48.870Z,60.35
2022-10-27T17:16:18.417Z,60.80
2022-10-27T17:18:47.679Z,60.85
2022-10-27T17:21:16.260Z,61.08
2022-10-27T17:23:45.551Z,61.32
2022-10-27T17:26:15.174Z,61.46
2022-10-27T17:28:46.281Z,61.46
2022-10-27T17:31:20.902Z,61.70
2022-10-27T17:33:53.081Z,61.66
2022-10-27T17:36:21.544Z,61.61
2022-10-27T17:38:50.092Z,61.87
2022-10-27T17:41:19.085Z,61.45
2022-10-27T17:43:47.550Z,61.70
2022-10-27T17:46:18.514Z,61.32
2022-10-27T17:48:48.520Z,61.55
2022-10-27T17:51:18.300Z,61.67
2022-10-27T17:53:47.513Z,61.55
2022-10-27T17:56:18.519Z,61.25
2022-10-27T17:58:47.778Z,61.78
2022-10-27T18:01:19.688Z,61.61
2022-10-27T18:03:49.406Z,61.40
2022-10-27T18:06:19.394Z,61.53
2022-10-27T18:08:52.882Z,61.58
2022-10-27T18:11:25.474Z,61.68
2022-10-27T18:13:57.425Z,61.47
2022-10-27T18:16:32.386Z,61.60
2022-10-27T18:19:02.075Z,61.57
2022-10-27T18:21:32.098Z,61.67
2022-10-27T18:24:01.391Z,61.46
2022-10-27T18:26:31.500Z,61.67
2022-10-27T18:29:00.176Z,61.54
2022-10-27T18:31:33.609Z,61.57
2022-10-27T18:34:02.059Z,61.85
2022-10-27T18:36:30.654Z,61.75
2022-10-27T18:39:00.677Z,61.77
2022-10-27T18:41:31.309Z,61.89
2022-10-27T18:44:00.300Z,61.60
2022-10-27T18:46:30.151Z,61.81
2022-10-27T18:49:00.067Z,61.82
2022-10-27T18:51:30.689Z,62.00
2022-10-27T18:54:01.705Z,61.82
2022-10-27T18:56:30.667Z,62.04
2022-10-27T18:59:00.420Z,61.86
2022-10-27T19:01:30.308Z,61.87
2022-10-27T19:04:00.437Z,61.73
2022-10-27T19:06:29.917Z,61.99
2022-10-27T19:08:59.647Z,61.97
2022-10-27T19:11:30.661Z,61.86
2022-10-27T19:14:02.134Z,61.70
2022-10-27T19:16:32.309Z,61.65
2022-10-27T19:19:01.506Z,61.83
2022-10-27T19:21:30.362Z,61.96
2022-10-27T19:24:01.941Z,61.76
2022-10-27T19:26:31.821Z,61.88
2022-10-27T19:29:00.507Z,61.74
2022-10-27T19:31:30.595Z,61.59
2022-10-27T19:34:01.372Z,61.95
2022-10-27T19:36:31.534Z,61.82
2022-10-27T19:39:01.585Z,61.91
2022-10-27T19:41:32.147Z,61.53
2022-10-27T19:44:00.848Z,61.89
2022-10-27T19:46:31.169Z,61.97
2022-10-27T19:49:02.304Z,62.02
2022-10-27T19:51:32.348Z,61.67
2022-10-27T19:54:01.007Z,61.76
2022-10-27T19:56:32.184Z,61.84
2022-10-27T19:59:03.370Z,61.89
2022-10-27T20:01:34.744Z,61.70
2022-10-27T20:04:06.254Z,61.64
2022-10-27T20:06:35.581Z,61.71
2022-10-27T20:09:04.879Z,61.67
2022-10-27T20:11:34.738Z,61.86
2022-10-27T20:14:03.558Z,61.72
2022-10-27T20:16:35.241Z,61.63
2022-10-27T20:19:07.153Z,61.64
2022-10-27T20:21:35.711Z,61.57
2022-10-27T20:24:10.329Z,61.49
2022-10-27T20:26:39.510Z,61.56
2022-10-27T20:29:08.303Z,61.67
2022-10-27T20:31:37.051Z,61.49
2022-10-27T20:34:10.278Z,61.43
2022-10-27T20:36:39.464Z,61.74
2022-10-27T20:39:09.236Z,61.64
2022-10-27T20:41:37.768Z,61.52
2022-10-27T20:44:06.740Z,61.60
2022-10-27T20:46:35.950Z,61.71
2022-10-27T20:49:05.900Z,61.57
2022-10-27T20:51:34.728Z,61.59
2022-10-27T20:54:04.029Z,61.85
2022-10-27T20:56:35.372Z,61.72
2022-10-27T20:59:04.569Z,61.51
2022-10-27T21:01:34.946Z,61.63
2022-10-27T21:04:06.589Z,61.54
2022-10-27T21:06:37.824Z,61.50
2022-10-27T21:09:07.737Z,61.45
2022-10-27T21:11:36.402Z,61.62
2022-10-27T21:14:06.452Z,61.68
2022-10-27T21:16:35.011Z,61.66
2022-10-27T21:19:05.225Z,61.71
2022-10-27T21:21:35.126Z,61.55
2022-10-27T21:24:04.600Z,61.47
2022-10-27T21:26:33.505Z,61.50
2022-10-27T21:29:02.086Z,61.91
2022-10-27T21:31:32.120Z,61.54
2022-10-27T21:34:03.034Z,61.71
2022-10-27T21:36:31.742Z,61.63
2022-10-27T21:39:01.790Z,61.42
2022-10-27T21:41:30.288Z,61.67
2022-10-27T21:43:58.713Z,61.48
2022-10-27T21:46:28.833Z,61.75
2022-10-27T21:48:58.688Z,61.52
2022-10-27T21:51:27.417Z,61.77
2022-10-27T21:54:00.573Z,61.64
2022-10-27T21:56:32.152Z,61.33
2022-10-27T21:59:00.875Z,61.59
2022-10-27T22:01:30.050Z,61.34
2022-10-27T22:03:58.761Z,61.48
2022-10-27T22:06:29.448Z,61.56
2022-10-27T22:08:58.641Z,61.59
2022-10-27T22:11:29.033Z,61.50
2022-10-27T22:13:59.551Z,61.11
2022-10-27T22:16:29.287Z,61.33
2022-10-27T22:18:59.898Z,61.51
2022-10-27T22:21:30.332Z,61.32
2022-10-27T22:23:59.160Z,61.61
2022-10-27T22:26:28.108Z,61.39
2022-10-27T22:28:56.724Z,61.24
2022-10-27T22:31:28.268Z,61.74
2022-10-27T22:33:57.006Z,61.38
2022-10-27T22:36:26.422Z,61.48
2022-10-27T22:38:55.649Z,61.62
2022-10-27T22:41:24.596Z,61.39
2022-10-27T22:43:53.468Z,61.40
2022-10-27T22:46:24.266Z,61.39
2022-10-27T22:48:55.660Z,61.20
2022-10-27T22:51:26.788Z,61.22
2022-10-27T22:53:57.370Z,61.15
2022-10-27T22:56:27.348Z,61.41
2022-10-27T22:58:56.917Z,61.33
2022-10-27T23:01:27.832Z,61.27
2022-10-27T23:03:58.794Z,61.35
2022-10-27T23:06:29.428Z,61.33
2022-10-27T23:08:59.402Z,61.51
2022-10-27T23:11:35.657Z,61.66
2022-10-27T23:14:04.456Z,61.32
2022-10-27T23:16:33.892Z,61.12
2022-10-27T23:19:04.254Z,61.19
2022-10-27T23:21:33.617Z,61.28
2022-10-27T23:24:02.792Z,61.41
2022-10-27T23:26:33.229Z,61.37
2022-10-27T23:29:02.824Z,61.32
2022-10-27T23:31:32.229Z,61.37
2022-10-27T23:34:01.750Z,61.20
2022-10-27T23:36:33.964Z,61.22
2022-10-27T23:39:02.442Z,61.26
2022-10-27T23:41:31.176Z,61.33
2022-10-27T23:44:00.470Z,61.29
2022-10-27T23:46:29.805Z,61.27
2022-10-27T23:48:58.502Z,61.42
2022-10-27T23:51:27.405Z,61.33
2022-10-27T23:53:57.502Z,61.22
2022-10-27T23:56:26.265Z,61.31
2022-10-27T23:58:54.786Z,61.29
